createdAt,value
2018-09-16T00:00:19.920Z,0.00
2018-09-16T00:00:55.145Z,0.00
2018-09-16T00:01:30.254Z,0.00
2018-09-16T00:02:05.464Z,0.00
2018-09-16T00:02:40.767Z,0.00
2018-09-16T00:03:16.114Z,0.00
2018-09-16T00:03:51.347Z,0.00
2018-09-16T00:04:26.957Z,0.00
2018-09-16T00:05:02.367Z,0.00
2018-09-16T00:05:37.938Z,0.00
2018-09-16T00:06:13.352Z,0.00
2018-09-16T00:06:49.052Z,0.00
2018-09-16T00:07:24.569Z,0.00
2018-09-16T00:08:00.099Z,0.00
2018-09-16T00:08:35.506Z,0.00
2018-09-16T00:09:10.634Z,0.00
2018-09-16T00:09:46.311Z,0.00
2018-09-16T00:10:21.519Z,0.00
2018-09-16T00:10:58.935Z,0.00
2018-09-16T00:11:34.323Z,0.00
2018-09-16T00:12:09.644Z,0.00
2018-09-16T00:12:44.860Z,0.00
2018-09-16T00:13:19.965Z,0.00
2018-09-16T00:13:55.193Z,0.00
2018-09-16T00:14:30.584Z,0.00
2018-09-16T00:15:05.890Z,0.00
2018-09-16T00:15:41.143Z,0.00
2018-09-16T00:16:16.675Z,0.00
2018-09-16T00:16:52.330Z,0.00
2018-09-16T00:17:27.664Z,0.00
2018-09-16T00:18:03.020Z,0.00
2018-09-16T00:18:38.583Z,0.00
2018-09-16T00:19:14.177Z,0.00
2018-09-16T00:19:49.715Z,0.00
2018-09-16T00:20:25.353Z,0.00
2018-09-16T00:21:00.685Z,0.00
2018-09-16T00:21:36.113Z,0.00
2018-09-16T00:22:11.695Z,0.00
2018-09-16T00:22:47.096Z,0.00
2018-09-16T00:23:22.519Z,0.00
2018-09-16T00:23:57.979Z,0.00
2018-09-16T00:24:33.304Z,0.00
2018-09-16T00:25:08.955Z,0.00
2018-09-16T00:25:44.289Z,0.00
2018-09-16T00:26:19.682Z,0.00
2018-09-16T00:26:55.403Z,0.00
2018-09-16T00:27:30.997Z,0.00
2018-09-16T00:28:06.410Z,0.00
2018-09-16T00:28:41.975Z,0.00
2018-09-16T00:29:17.332Z,0.00
2018-09-16T00:29:52.689Z,0.00
2018-09-16T00:30:27.956Z,0.00
2018-09-16T00:31:03.370Z,0.00
2018-09-16T00:31:38.476Z,0.00
2018-09-16T00:32:13.687Z,0.00
2018-09-16T00:32:48.799Z,0.00
2018-09-16T00:33:24.005Z,0.00
2018-09-16T00:33:59.421Z,0.00
2018-09-16T00:34:34.670Z,0.00
2018-09-16T00:35:10.016Z,0.00
2018-09-16T00:35:45.257Z,0.00
2018-09-16T00:36:20.590Z,0.00
2018-09-16T00:36:55.725Z,0.00
2018-09-16T00:37:31.092Z,0.00
2018-09-16T00:38:06.430Z,0.00
2018-09-16T00:38:41.659Z,0.00
2018-09-16T00:39:16.997Z,0.00
2018-09-16T00:39:52.253Z,0.00
2018-09-16T00:40:27.737Z,0.00
2018-09-16T00:41:03.107Z,0.00
2018-09-16T00:41:38.542Z,0.00
2018-09-16T00:42:13.997Z,0.00
2018-09-16T00:42:49.537Z,0.00
2018-09-16T00:43:24.861Z,0.00
2018-09-16T00:44:00.176Z,0.00
2018-09-16T00:44:35.593Z,0.00
2018-09-16T00:45:11.066Z,0.00
2018-09-16T00:45:46.190Z,0.00
2018-09-16T00:46:21.504Z,0.00
2018-09-16T00:46:56.757Z,0.00
2018-09-16T00:47:32.100Z,0.00
2018-09-16T00:48:07.222Z,0.00
2018-09-16T00:48:42.882Z,0.00
2018-09-16T00:49:18.421Z,0.00
2018-09-16T00:49:53.908Z,0.00
2018-09-16T00:50:29.056Z,0.00
2018-09-16T00:51:04.313Z,0.00
2018-09-16T00:51:39.688Z,0.00
2018-09-16T00:52:15.117Z,0.00
2018-09-16T00:52:50.294Z,0.00
2018-09-16T00:53:25.725Z,0.00
2018-09-16T00:54:01.065Z,0.00
2018-09-16T00:54:36.836Z,0.00
2018-09-16T00:55:12.103Z,0.00
2018-09-16T00:55:47.433Z,0.00
2018-09-16T00:56:22.955Z,0.00
2018-09-16T00:56:58.147Z,0.00
2018-09-16T00:57:33.583Z,0.00
2018-09-16T00:58:08.888Z,0.00
2018-09-16T00:58:44.250Z,0.00
2018-09-16T00:59:19.496Z,0.00
2018-09-16T00:59:56.413Z,0.00
2018-09-16T01:00:31.719Z,0.00
2018-09-16T01:01:06.945Z,0.00
2018-09-16T01:01:42.467Z,0.00
2018-09-16T01:02:17.500Z,0.00
2018-09-16T01:02:52.786Z,0.00
2018-09-16T01:03:28.417Z,0.00
2018-09-16T01:04:03.812Z,0.00
2018-09-16T01:04:39.092Z,0.00
2018-09-16T01:05:14.403Z,0.00
2018-09-16T01:05:49.589Z,0.00
2018-09-16T01:06:25.024Z,0.00
2018-09-16T01:07:00.243Z,0.00
2018-09-16T01:07:35.671Z,0.00
2018-09-16T01:08:10.850Z,0.00
2018-09-16T01:08:46.265Z,0.00
2018-09-16T01:09:21.560Z,0.00
2018-09-16T01:09:56.866Z,0.00
2018-09-16T01:10:32.341Z,0.00
2018-09-16T01:11:07.451Z,0.00
2018-09-16T01:11:43.022Z,0.00
2018-09-16T01:12:18.329Z,0.00
2018-09-16T01:12:53.962Z,0.00
2018-09-16T01:13:29.238Z,0.00
2018-09-16T01:14:04.769Z,0.00
2018-09-16T01:14:40.207Z,0.00
2018-09-16T01:15:15.537Z,0.00
2018-09-16T01:15:50.623Z,0.00
2018-09-16T01:16:26.268Z,0.00
2018-09-16T01:17:01.890Z,0.00
2018-09-16T01:17:37.344Z,0.00
2018-09-16T01:18:12.681Z,0.00
2018-09-16T01:18:48.333Z,0.00
2018-09-16T01:19:23.750Z,0.00
2018-09-16T01:19:59.192Z,0.00
2018-09-16T01:20:34.485Z,0.00
2018-09-16T01:21:09.873Z,0.00
2018-09-16T01:21:45.339Z,0.00
2018-09-16T01:22:20.665Z,0.00
2018-09-16T01:22:56.008Z,0.00
2018-09-16T01:23:31.596Z,0.00
2018-09-16T01:24:06.983Z,0.00
2018-09-16T01:24:42.249Z,0.00
2018-09-16T01:25:17.690Z,0.00
2018-09-16T01:25:53.228Z,0.00
2018-09-16T01:26:28.633Z,0.00
2018-09-16T01:27:04.169Z,0.00
2018-09-16T01:27:39.723Z,0.00
2018-09-16T01:28:15.106Z,0.00
2018-09-16T01:28:50.445Z,0.00
2018-09-16T01:29:25.938Z,0.00
2018-09-16T01:30:01.526Z,0.00
2018-09-16T01:30:37.046Z,0.00
2018-09-16T01:31:12.805Z,0.00
2018-09-16T01:31:48.826Z,0.00
2018-09-16T01:32:24.171Z,0.00
2018-09-16T01:32:59.581Z,0.00
2018-09-16T01:33:34.929Z,0.00
2018-09-16T01:34:10.345Z,0.00
2018-09-16T01:34:45.736Z,0.00
2018-09-16T01:35:21.311Z,0.00
2018-09-16T01:35:56.644Z,0.00
2018-09-16T01:36:31.979Z,0.00
2018-09-16T01:37:07.249Z,0.00
2018-09-16T01:37:42.894Z,0.00
2018-09-16T01:38:18.427Z,0.00
2018-09-16T01:38:53.644Z,0.00
2018-09-16T01:39:28.848Z,0.00
2018-09-16T01:40:04.077Z,0.00
2018-09-16T01:40:39.614Z,0.00
2018-09-16T01:41:15.283Z,0.00
2018-09-16T01:41:50.779Z,0.00
2018-09-16T01:42:26.092Z,0.00
2018-09-16T01:43:01.526Z,0.00
2018-09-16T01:43:36.755Z,0.00
2018-09-16T01:44:12.194Z,0.00
2018-09-16T01:44:47.664Z,0.00
2018-09-16T01:45:22.789Z,0.00
2018-09-16T01:45:58.191Z,0.00
2018-09-16T01:46:33.596Z,0.00
2018-09-16T01:47:09.119Z,0.00
2018-09-16T01:47:44.226Z,0.00
2018-09-16T01:48:19.782Z,0.00
2018-09-16T01:48:55.013Z,0.00
2018-09-16T01:49:30.471Z,0.00
2018-09-16T01:50:05.769Z,0.00
2018-09-16T01:50:41.279Z,0.00
2018-09-16T01:51:17.037Z,0.00
2018-09-16T01:51:52.026Z,0.00
2018-09-16T01:52:27.384Z,0.00
2018-09-16T01:53:03.037Z,0.00
2018-09-16T01:53:38.365Z,0.00
2018-09-16T01:54:13.674Z,0.00
2018-09-16T01:54:49.023Z,0.00
2018-09-16T01:55:24.352Z,0.00
2018-09-16T01:55:59.825Z,0.00
2018-09-16T01:56:35.356Z,0.00
2018-09-16T01:57:10.850Z,0.00
2018-09-16T01:57:46.301Z,0.00
2018-09-16T01:58:21.527Z,0.00
2018-09-16T01:58:56.931Z,0.00
2018-09-16T01:59:32.551Z,0.00
2018-09-16T02:00:08.055Z,0.00
2018-09-16T02:00:43.472Z,0.00
2018-09-16T02:01:19.233Z,0.00
2018-09-16T02:01:54.619Z,0.00
2018-09-16T02:02:30.148Z,0.00
2018-09-16T02:03:05.501Z,0.00
2018-09-16T02:03:40.797Z,0.00
2018-09-16T02:04:16.255Z,0.00
2018-09-16T02:04:51.670Z,0.00
2018-09-16T02:05:27.102Z,0.00
2018-09-16T02:06:02.432Z,0.00
2018-09-16T02:06:37.593Z,0.00
2018-09-16T02:07:13.172Z,0.00
2018-09-16T02:07:48.915Z,0.00
2018-09-16T02:08:24.248Z,0.00
2018-09-16T02:08:59.616Z,0.00
2018-09-16T02:09:35.282Z,0.00
2018-09-16T02:10:10.416Z,0.00
2018-09-16T02:10:45.528Z,0.00
2018-09-16T02:11:21.099Z,0.00
2018-09-16T02:11:56.341Z,0.00
2018-09-16T02:12:31.652Z,0.00
2018-09-16T02:13:07.250Z,0.00
2018-09-16T02:13:43.033Z,0.00
2018-09-16T02:14:18.467Z,0.00
2018-09-16T02:14:53.921Z,0.00
2018-09-16T02:15:29.244Z,0.00
2018-09-16T02:16:04.901Z,0.00
2018-09-16T02:16:40.004Z,0.00
2018-09-16T02:17:15.658Z,0.00
2018-09-16T02:17:50.852Z,0.00
2018-09-16T02:18:26.077Z,0.00
2018-09-16T02:19:01.472Z,0.00
2018-09-16T02:19:37.218Z,0.00
2018-09-16T02:20:12.548Z,0.00
2018-09-16T02:20:47.780Z,0.00
2018-09-16T02:21:23.036Z,0.00
2018-09-16T02:21:58.481Z,0.00
2018-09-16T02:22:33.904Z,0.00
2018-09-16T02:23:09.267Z,0.00
2018-09-16T02:23:44.262Z,0.00
2018-09-16T02:24:19.714Z,0.00
2018-09-16T02:24:55.321Z,0.00
2018-09-16T02:25:30.401Z,0.00
2018-09-16T02:26:05.827Z,0.00
2018-09-16T02:26:41.334Z,0.00
2018-09-16T02:27:16.553Z,0.00
2018-09-16T02:27:52.122Z,0.00
2018-09-16T02:28:27.413Z,0.00
2018-09-16T02:29:02.751Z,0.00
2018-09-16T02:29:38.436Z,0.00
2018-09-16T02:30:13.661Z,0.00
2018-09-16T02:30:49.020Z,0.00
2018-09-16T02:31:24.265Z,0.00
2018-09-16T02:31:59.778Z,0.00
2018-09-16T02:32:35.040Z,0.00
2018-09-16T02:33:10.430Z,0.00
2018-09-16T02:33:45.696Z,0.00
2018-09-16T02:34:20.954Z,0.00
2018-09-16T02:34:56.168Z,0.00
2018-09-16T02:35:31.807Z,0.00
2018-09-16T02:36:07.260Z,0.00
2018-09-16T02:36:42.864Z,0.00
2018-09-16T02:37:18.261Z,0.00
2018-09-16T02:37:53.863Z,0.00
2018-09-16T02:38:29.147Z,0.00
2018-09-16T02:39:04.361Z,0.00
2018-09-16T02:39:39.510Z,0.00
2018-09-16T02:40:14.906Z,0.00
2018-09-16T02:40:50.391Z,0.00
2018-09-16T02:41:25.890Z,0.00
2018-09-16T02:42:01.455Z,0.00
2018-09-16T02:42:36.779Z,0.00
2018-09-16T02:43:12.362Z,0.00
2018-09-16T02:43:47.711Z,0.00
2018-09-16T02:44:23.228Z,0.00
2018-09-16T02:44:58.371Z,0.00
2018-09-16T02:45:33.738Z,0.00
2018-09-16T02:46:09.462Z,0.00
2018-09-16T02:46:44.785Z,0.00
2018-09-16T02:47:20.182Z,0.00
2018-09-16T02:47:55.465Z,0.00
2018-09-16T02:48:31.378Z,0.00
2018-09-16T02:49:06.806Z,0.00
2018-09-16T02:49:42.017Z,0.00
2018-09-16T02:50:17.388Z,0.00
2018-09-16T02:50:52.803Z,0.00
2018-09-16T02:51:28.050Z,0.00
2018-09-16T02:52:03.567Z,0.00
2018-09-16T02:52:38.781Z,0.00
2018-09-16T02:53:14.126Z,0.00
2018-09-16T02:53:49.597Z,0.00
2018-09-16T02:54:24.838Z,0.00
2018-09-16T02:54:59.769Z,0.00
2018-09-16T02:55:35.084Z,0.00
2018-09-16T02:56:10.305Z,0.00
2018-09-16T02:56:45.819Z,0.00
2018-09-16T02:57:21.153Z,0.00
2018-09-16T02:57:56.579Z,0.00
2018-09-16T02:58:31.918Z,0.00
2018-09-16T02:59:07.342Z,0.00
2018-09-16T02:59:42.805Z,0.00
2018-09-16T03:00:18.101Z,0.00
2018-09-16T03:00:53.471Z,0.00
2018-09-16T03:01:28.794Z,0.00
2018-09-16T03:02:03.922Z,0.00
2018-09-16T03:02:39.370Z,0.00
2018-09-16T03:03:14.747Z,0.00
2018-09-16T03:03:49.984Z,0.00
2018-09-16T03:04:25.404Z,0.00
2018-09-16T03:05:00.711Z,0.00
2018-09-16T03:05:36.187Z,0.00
2018-09-16T03:06:11.288Z,0.00
2018-09-16T03:06:46.632Z,0.00
2018-09-16T03:07:22.435Z,0.00
2018-09-16T03:07:57.625Z,0.00
2018-09-16T03:08:33.133Z,0.00
2018-09-16T03:09:08.560Z,0.00
2018-09-16T03:09:44.021Z,0.00
2018-09-16T03:10:19.745Z,0.00
2018-09-16T03:10:55.287Z,0.00
2018-09-16T03:11:30.670Z,0.00
2018-09-16T03:12:06.001Z,0.00
2018-09-16T03:12:41.403Z,0.00
2018-09-16T03:13:16.836Z,0.00
2018-09-16T03:13:52.066Z,0.00
2018-09-16T03:14:27.383Z,0.00
2018-09-16T03:15:02.924Z,0.00
2018-09-16T03:15:38.316Z,0.00
2018-09-16T03:16:13.632Z,0.00
2018-09-16T03:16:49.033Z,0.00
2018-09-16T03:17:24.897Z,0.00
2018-09-16T03:17:59.923Z,0.00
2018-09-16T03:18:35.191Z,0.00
2018-09-16T03:19:10.661Z,0.00
2018-09-16T03:19:46.033Z,0.00
2018-09-16T03:20:21.662Z,0.00
2018-09-16T03:20:56.933Z,0.00
2018-09-16T03:21:32.560Z,0.00
2018-09-16T03:22:07.801Z,0.00
2018-09-16T03:22:43.221Z,0.00
2018-09-16T03:23:18.650Z,0.00
2018-09-16T03:23:53.752Z,0.00
2018-09-16T03:24:29.514Z,0.00
2018-09-16T03:25:05.091Z,0.00
2018-09-16T03:25:40.612Z,0.00
2018-09-16T03:26:15.889Z,0.00
2018-09-16T03:26:51.529Z,0.00
2018-09-16T03:27:27.017Z,0.00
2018-09-16T03:28:02.333Z,0.00
2018-09-16T03:28:37.960Z,0.00
2018-09-16T03:29:13.180Z,0.00
2018-09-16T03:29:48.451Z,0.00
2018-09-16T03:30:23.876Z,0.00
2018-09-16T03:30:59.093Z,0.00
2018-09-16T03:31:34.561Z,0.00
2018-09-16T03:32:10.069Z,0.00
2018-09-16T03:32:45.295Z,0.00
2018-09-16T03:33:20.636Z,0.00
2018-09-16T03:33:55.983Z,0.00
2018-09-16T03:34:31.605Z,0.00
2018-09-16T03:35:06.799Z,0.00
2018-09-16T03:35:42.203Z,0.00
2018-09-16T03:36:17.441Z,0.00
2018-09-16T03:36:52.453Z,0.00
2018-09-16T03:37:27.778Z,0.00
2018-09-16T03:38:03.283Z,0.00
2018-09-16T03:38:38.693Z,0.00
2018-09-16T03:39:14.102Z,0.00
2018-09-16T03:39:49.457Z,0.00
2018-09-16T03:40:24.994Z,0.00
2018-09-16T03:41:00.417Z,0.00
2018-09-16T03:41:35.756Z,0.00
2018-09-16T03:42:11.008Z,0.00
2018-09-16T03:42:46.416Z,0.00
2018-09-16T03:43:21.717Z,0.00
2018-09-16T03:43:56.830Z,0.00
2018-09-16T03:44:32.514Z,0.00
2018-09-16T03:45:07.928Z,0.00
2018-09-16T03:45:43.275Z,0.00
2018-09-16T03:46:18.579Z,0.00
2018-09-16T03:46:54.141Z,0.00
2018-09-16T03:47:29.591Z,0.00
2018-09-16T03:48:05.108Z,0.00
2018-09-16T03:48:40.115Z,0.00
2018-09-16T03:49:15.566Z,0.00
2018-09-16T03:49:50.664Z,0.00
2018-09-16T03:50:25.903Z,0.00
2018-09-16T03:51:01.084Z,0.00
2018-09-16T03:51:36.629Z,0.00
2018-09-16T03:52:12.140Z,0.00
2018-09-16T03:52:47.288Z,0.00
2018-09-16T03:53:22.912Z,0.00
2018-09-16T03:53:58.236Z,0.00
2018-09-16T03:54:33.458Z,0.00
2018-09-16T03:55:08.607Z,0.00
2018-09-16T03:55:43.740Z,0.00
2018-09-16T03:56:19.175Z,0.00
2018-09-16T03:56:54.590Z,0.00
2018-09-16T03:57:29.924Z,0.00
2018-09-16T03:58:05.323Z,0.00
2018-09-16T03:58:40.656Z,0.00
2018-09-16T03:59:15.993Z,0.00
2018-09-16T03:59:51.327Z,0.00
2018-09-16T04:00:26.662Z,0.00
2018-09-16T04:01:01.921Z,0.00
2018-09-16T04:01:37.253Z,0.00
2018-09-16T04:02:12.616Z,0.00
2018-09-16T04:02:47.807Z,0.00
2018-09-16T04:03:23.356Z,0.00
2018-09-16T04:03:58.483Z,0.00
2018-09-16T04:04:33.832Z,0.00
2018-09-16T04:05:08.867Z,0.00
2018-09-16T04:05:44.148Z,0.00
2018-09-16T04:06:19.552Z,0.00
2018-09-16T04:06:54.891Z,0.00
2018-09-16T04:07:30.137Z,0.00
2018-09-16T04:08:05.745Z,0.00
2018-09-16T04:08:41.001Z,0.00
2018-09-16T04:09:16.715Z,0.00
2018-09-16T04:09:52.121Z,0.00
2018-09-16T04:10:27.490Z,0.00
2018-09-16T04:11:02.657Z,0.00
2018-09-16T04:11:38.149Z,0.00
2018-09-16T04:12:13.565Z,0.00
2018-09-16T04:12:49.247Z,0.00
2018-09-16T04:13:24.672Z,0.00
2018-09-16T04:14:00.282Z,0.00
2018-09-16T04:14:35.680Z,0.00
2018-09-16T04:15:11.157Z,0.00
2018-09-16T04:15:46.475Z,0.00
2018-09-16T04:16:21.829Z,0.00
2018-09-16T04:16:57.291Z,0.00
2018-09-16T04:17:32.716Z,0.00
2018-09-16T04:18:07.919Z,0.00
2018-09-16T04:18:43.344Z,0.00
2018-09-16T04:19:18.458Z,0.00
2018-09-16T04:19:53.719Z,0.00
2018-09-16T04:20:29.234Z,0.00
2018-09-16T04:21:04.667Z,0.00
2018-09-16T04:21:40.100Z,0.00
2018-09-16T04:22:15.619Z,0.00
2018-09-16T04:22:50.648Z,0.00
2018-09-16T04:23:25.966Z,0.00
2018-09-16T04:24:01.079Z,0.00
2018-09-16T04:24:36.443Z,0.00
2018-09-16T04:25:11.696Z,0.00
2018-09-16T04:25:47.224Z,0.00
2018-09-16T04:26:22.375Z,0.00
2018-09-16T04:26:57.772Z,0.00
2018-09-16T04:27:33.340Z,0.00
2018-09-16T04:28:08.559Z,0.00
2018-09-16T04:28:43.904Z,0.00
2018-09-16T04:29:19.333Z,0.00
2018-09-16T04:29:54.760Z,0.00
2018-09-16T04:30:30.404Z,0.00
2018-09-16T04:31:05.791Z,0.00
2018-09-16T04:31:41.045Z,0.00
2018-09-16T04:32:16.508Z,0.00
2018-09-16T04:32:51.946Z,0.00
2018-09-16T04:33:27.123Z,0.00
2018-09-16T04:34:02.167Z,0.00
2018-09-16T04:34:37.715Z,0.00
2018-09-16T04:35:12.870Z,0.00
2018-09-16T04:35:48.208Z,0.00
2018-09-16T04:36:23.552Z,0.00
2018-09-16T04:36:58.721Z,0.00
2018-09-16T04:37:34.125Z,0.00
2018-09-16T04:38:09.457Z,0.00
2018-09-16T04:38:44.858Z,0.00
2018-09-16T04:39:20.345Z,4.00
2018-09-16T04:39:55.432Z,4.00
2018-09-16T04:40:31.096Z,4.00
2018-09-16T04:41:06.348Z,4.00
2018-09-16T04:41:42.018Z,0.00
2018-09-16T04:42:17.320Z,4.00
2018-09-16T04:42:52.660Z,4.00
2018-09-16T04:43:27.979Z,4.00
2018-09-16T04:44:03.208Z,4.00
2018-09-16T04:44:38.658Z,8.00
2018-09-16T04:45:13.898Z,4.00
2018-09-16T04:45:49.700Z,4.00
2018-09-16T04:46:24.958Z,8.00
2018-09-16T04:47:00.317Z,8.00
2018-09-16T04:47:35.979Z,12.00
2018-09-16T04:48:11.377Z,8.00
2018-09-16T04:48:46.806Z,12.00
2018-09-16T04:49:22.443Z,12.00
2018-09-16T04:49:57.883Z,12.00
2018-09-16T04:50:32.956Z,16.00
2018-09-16T04:51:08.283Z,16.00
2018-09-16T04:51:43.701Z,20.00
2018-09-16T04:52:19.123Z,20.00
2018-09-16T04:52:54.672Z,20.00
2018-09-16T04:53:30.240Z,20.00
2018-09-16T04:54:05.733Z,24.00
2018-09-16T04:54:41.041Z,28.00
2018-09-16T04:55:16.353Z,28.00
2018-09-16T04:55:51.487Z,32.00
2018-09-16T04:56:26.874Z,36.00
2018-09-16T04:57:02.100Z,40.00
2018-09-16T04:57:37.588Z,48.00
2018-09-16T04:58:13.099Z,48.00
2018-09-16T04:58:48.618Z,52.00
2018-09-16T04:59:24.014Z,56.00
2018-09-16T04:59:59.325Z,60.00
2018-09-16T05:00:34.570Z,60.00
2018-09-16T05:01:09.951Z,64.00
2018-09-16T05:01:45.319Z,64.00
2018-09-16T05:02:20.754Z,68.00
2018-09-16T05:02:55.884Z,76.00
2018-09-16T05:03:31.254Z,80.00
2018-09-16T05:04:06.529Z,84.00
2018-09-16T05:04:42.046Z,92.00
2018-09-16T05:05:17.713Z,96.00
2018-09-16T05:05:53.054Z,104.00
2018-09-16T05:06:28.412Z,108.00
2018-09-16T05:07:03.707Z,116.00
2018-09-16T05:07:39.152Z,120.00
2018-09-16T05:08:14.562Z,128.00
2018-09-16T05:08:50.108Z,132.00
2018-09-16T05:09:25.451Z,144.00
2018-09-16T05:10:00.791Z,148.00
2018-09-16T05:10:36.205Z,160.00
2018-09-16T05:11:11.491Z,168.00
2018-09-16T05:11:46.703Z,176.00
2018-09-16T05:12:22.041Z,184.00
2018-09-16T05:12:57.181Z,192.00
2018-09-16T05:13:32.309Z,204.00
2018-09-16T05:14:07.403Z,212.00
2018-09-16T05:14:42.751Z,224.00
2018-09-16T05:15:18.275Z,236.00
2018-09-16T05:15:53.530Z,248.00
2018-09-16T05:16:28.880Z,264.00
2018-09-16T05:17:04.412Z,276.00
2018-09-16T05:17:39.753Z,288.00
2018-09-16T05:18:15.259Z,308.00
2018-09-16T05:18:50.677Z,324.00
2018-09-16T05:19:25.953Z,344.00
2018-09-16T05:20:01.239Z,364.00
2018-09-16T05:20:36.721Z,384.00
2018-09-16T05:21:12.127Z,404.00
2018-09-16T05:21:47.571Z,424.00
2018-09-16T05:22:23.106Z,444.00
2018-09-16T05:22:58.883Z,464.00
2018-09-16T05:23:34.789Z,480.00
2018-09-16T05:24:10.290Z,500.00
2018-09-16T05:24:45.480Z,520.00
2018-09-16T05:25:21.061Z,536.00
2018-09-16T05:25:56.578Z,556.00
2018-09-16T05:26:32.323Z,576.00
2018-09-16T05:27:07.751Z,600.00
2018-09-16T05:27:44.101Z,624.00
2018-09-16T05:28:20.181Z,652.00
2018-09-16T05:28:56.053Z,680.00
2018-09-16T05:29:32.401Z,712.00
2018-09-16T05:30:08.368Z,748.00
2018-09-16T05:30:45.402Z,776.00
2018-09-16T05:31:21.495Z,800.00
2018-09-16T05:31:57.618Z,828.00
2018-09-16T05:32:33.175Z,848.00
2018-09-16T05:33:09.233Z,880.00
2018-09-16T05:33:44.598Z,908.00
2018-09-16T05:34:20.450Z,936.00
2018-09-16T05:34:56.427Z,972.00
2018-09-16T05:35:31.902Z,1000.00
2018-09-16T05:36:07.469Z,1028.00
2018-09-16T05:36:43.058Z,1052.00
2018-09-16T05:37:19.172Z,1072.00
2018-09-16T05:37:54.827Z,1092.00
2018-09-16T05:38:30.552Z,1104.00
2018-09-16T05:39:06.203Z,1112.00
2018-09-16T05:39:41.451Z,1120.00
2018-09-16T05:40:17.392Z,1128.00
2018-09-16T05:40:53.027Z,1132.00
2018-09-16T05:41:28.413Z,1148.00
2018-09-16T05:42:03.932Z,1160.00
2018-09-16T05:42:39.647Z,1176.00
2018-09-16T05:43:15.372Z,1192.00
2018-09-16T05:43:50.987Z,1212.00
2018-09-16T05:44:26.595Z,1224.00
2018-09-16T05:45:02.110Z,1232.00
2018-09-16T05:45:37.896Z,1236.00
2018-09-16T05:46:13.495Z,1240.00
2018-09-16T05:46:49.133Z,1252.00
2018-09-16T05:47:24.606Z,1280.00
2018-09-16T05:48:01.615Z,1300.00
2018-09-16T05:48:37.560Z,1320.00
2018-09-16T05:49:13.275Z,1356.00
2018-09-16T05:49:48.833Z,1392.00
2018-09-16T05:50:24.041Z,1436.00
2018-09-16T05:50:59.609Z,1472.00
2018-09-16T05:51:34.837Z,1496.00
2018-09-16T05:52:10.803Z,1524.00
2018-09-16T05:52:46.332Z,1560.00
2018-09-16T05:53:21.733Z,1596.00
2018-09-16T05:53:57.073Z,1632.00
2018-09-16T05:54:32.399Z,1644.00
2018-09-16T05:55:07.639Z,1656.00
2018-09-16T05:55:43.079Z,1676.00
2018-09-16T05:56:18.341Z,1724.00
2018-09-16T05:56:53.760Z,1748.00
2018-09-16T05:57:28.999Z,1780.00
2018-09-16T05:58:04.427Z,1820.00
2018-09-16T05:58:39.666Z,1852.00
2018-09-16T05:59:15.031Z,1856.00
2018-09-16T05:59:50.463Z,1856.00
2018-09-16T06:00:25.854Z,1876.00
2018-09-16T06:01:00.883Z,1872.00
2018-09-16T06:01:36.291Z,1840.00
2018-09-16T06:02:11.533Z,1840.00
2018-09-16T06:02:47.036Z,1888.00
2018-09-16T06:03:22.659Z,1944.00
2018-09-16T06:03:58.291Z,1932.00
2018-09-16T06:04:33.691Z,1900.00
2018-09-16T06:05:09.297Z,1884.00
2018-09-16T06:05:44.593Z,1888.00
2018-09-16T06:06:19.707Z,1932.00
2018-09-16T06:06:55.063Z,1980.00
2018-09-16T06:07:30.494Z,1992.00
2018-09-16T06:08:05.710Z,1976.00
2018-09-16T06:08:41.194Z,1972.00
2018-09-16T06:09:16.533Z,1992.00
2018-09-16T06:09:51.871Z,2008.00
2018-09-16T06:10:26.980Z,1992.00
2018-09-16T06:11:02.242Z,1984.00
2018-09-16T06:11:37.868Z,2024.00
2018-09-16T06:12:13.383Z,2028.00
2018-09-16T06:12:48.910Z,2036.00
2018-09-16T06:13:24.474Z,2100.00
2018-09-16T06:14:00.005Z,2100.00
2018-09-16T06:14:35.269Z,2084.00
2018-09-16T06:15:10.670Z,2100.00
2018-09-16T06:15:46.321Z,2136.00
2018-09-16T06:16:21.588Z,2152.00
2018-09-16T06:16:56.935Z,2152.00
2018-09-16T06:17:32.135Z,2136.00
2018-09-16T06:18:07.575Z,2112.00
2018-09-16T06:18:43.002Z,2068.00
2018-09-16T06:19:18.674Z,2040.00
2018-09-16T06:19:54.512Z,1988.00
2018-09-16T06:20:29.856Z,2068.00
2018-09-16T06:21:05.228Z,2096.00
2018-09-16T06:21:40.966Z,2088.00
2018-09-16T06:22:16.397Z,2128.00
2018-09-16T06:22:51.790Z,2124.00
2018-09-16T06:23:27.190Z,2072.00
2018-09-16T06:24:02.501Z,1980.00
2018-09-16T06:24:37.960Z,2072.00
2018-09-16T06:25:13.219Z,2056.00
2018-09-16T06:25:48.924Z,1984.00
2018-09-16T06:26:24.246Z,1952.00
2018-09-16T06:26:59.581Z,1896.00
2018-09-16T06:27:35.018Z,1956.00
2018-09-16T06:28:10.633Z,2052.00
2018-09-16T06:28:46.157Z,2168.00
2018-09-16T06:29:21.399Z,2196.00
2018-09-16T06:29:56.819Z,2288.00
2018-09-16T06:30:32.517Z,2436.00
2018-09-16T06:31:08.352Z,2568.00
2018-09-16T06:31:43.900Z,2608.00
2018-09-16T06:32:19.500Z,2660.00
2018-09-16T06:32:54.630Z,2624.00
2018-09-16T06:33:30.292Z,2660.00
2018-09-16T06:34:05.767Z,2760.00
2018-09-16T06:34:41.070Z,2800.00
2018-09-16T06:35:16.221Z,2768.00
2018-09-16T06:35:51.481Z,2460.00
2018-09-16T06:36:26.690Z,2712.00
2018-09-16T06:37:02.018Z,3048.00
2018-09-16T06:37:37.442Z,3208.00
2018-09-16T06:38:12.761Z,3596.00
2018-09-16T06:38:48.053Z,4316.00
2018-09-16T06:39:23.724Z,5156.00
2018-09-16T06:39:59.115Z,5660.00
2018-09-16T06:40:34.407Z,6160.00
2018-09-16T06:41:09.617Z,6536.00
2018-09-16T06:41:44.987Z,7364.00
2018-09-16T06:42:20.598Z,7328.00
2018-09-16T06:42:56.231Z,7584.00
2018-09-16T06:43:31.677Z,7208.00
2018-09-16T06:44:06.926Z,8656.00
2018-09-16T06:44:42.566Z,10272.00
2018-09-16T06:45:18.087Z,10356.00
2018-09-16T06:45:53.497Z,11124.00
2018-09-16T06:46:29.040Z,13120.00
2018-09-16T06:47:04.367Z,14288.00
2018-09-16T06:47:39.904Z,13688.00
2018-09-16T06:48:15.341Z,13868.00
2018-09-16T06:48:50.881Z,13732.00
2018-09-16T06:49:26.254Z,14224.00
2018-09-16T06:50:01.796Z,14760.00
2018-09-16T06:50:37.171Z,15648.00
2018-09-16T06:51:12.744Z,14608.00
2018-09-16T06:51:48.239Z,15648.00
2018-09-16T06:52:23.581Z,16192.00
2018-09-16T06:52:58.850Z,16896.00
2018-09-16T06:53:34.208Z,17248.00
2018-09-16T06:54:09.534Z,17472.00
2018-09-16T06:54:44.929Z,17600.00
2018-09-16T06:55:20.522Z,17856.00
2018-09-16T06:55:55.785Z,17888.00
2018-09-16T06:56:30.998Z,17760.00
2018-09-16T06:57:06.249Z,17408.00
2018-09-16T06:57:41.656Z,17088.00
2018-09-16T06:58:17.194Z,17056.00
2018-09-16T06:58:52.557Z,16800.00
2018-09-16T06:59:28.131Z,15328.00
2018-09-16T07:00:03.332Z,12756.00
2018-09-16T07:00:38.704Z,13784.00
2018-09-16T07:01:14.127Z,15968.00
2018-09-16T07:01:49.745Z,16032.00
2018-09-16T07:02:25.051Z,15840.00
2018-09-16T07:03:00.409Z,15456.00
2018-09-16T07:03:36.171Z,16032.00
2018-09-16T07:04:11.415Z,15872.00
2018-09-16T07:04:46.824Z,15776.00
2018-09-16T07:05:22.166Z,15104.00
2018-09-16T07:05:57.500Z,15424.00
2018-09-16T07:06:32.927Z,15360.00
2018-09-16T07:07:08.233Z,15712.00
2018-09-16T07:07:43.683Z,15648.00
2018-09-16T07:08:19.367Z,16384.00
2018-09-16T07:08:54.810Z,16512.00
2018-09-16T07:09:30.193Z,16640.00
2018-09-16T07:10:07.871Z,16640.00
2018-09-16T07:10:50.354Z,14340.00
2018-09-16T07:11:27.314Z,13764.00
2018-09-16T07:12:01.557Z,16096.00
2018-09-16T07:12:37.128Z,14940.00
2018-09-16T07:13:12.464Z,14196.00
2018-09-16T07:13:47.780Z,14104.00
2018-09-16T07:14:23.018Z,14572.00
2018-09-16T07:14:58.708Z,15168.00
2018-09-16T07:15:34.410Z,14944.00
2018-09-16T07:16:10.431Z,15200.00
2018-09-16T07:16:48.314Z,16064.00
2018-09-16T07:17:23.312Z,15616.00
2018-09-16T07:17:58.848Z,15616.00
2018-09-16T07:18:34.213Z,16352.00
2018-09-16T07:19:09.562Z,16480.00
2018-09-16T07:19:45.180Z,16320.00
2018-09-16T07:20:20.826Z,13184.00
2018-09-16T07:20:56.421Z,12048.00
2018-09-16T07:21:31.836Z,13200.00
2018-09-16T07:22:07.270Z,16128.00
2018-09-16T07:22:42.850Z,16480.00
2018-09-16T07:23:18.211Z,16224.00
2018-09-16T07:23:53.797Z,15424.00
2018-09-16T07:24:29.245Z,16544.00
2018-09-16T07:25:04.590Z,16800.00
2018-09-16T07:25:40.298Z,16800.00
2018-09-16T07:26:15.943Z,16576.00
2018-09-16T07:26:51.569Z,9324.00
2018-09-16T07:27:27.019Z,16416.00
2018-09-16T07:28:02.628Z,15744.00
2018-09-16T07:28:37.909Z,14944.00
2018-09-16T07:29:13.378Z,16320.00
2018-09-16T07:29:48.751Z,16704.00
2018-09-16T07:30:24.070Z,16672.00
2018-09-16T07:30:59.508Z,16672.00
2018-09-16T07:31:34.941Z,16736.00
2018-09-16T07:32:10.257Z,16928.00
2018-09-16T07:32:46.015Z,16768.00
2018-09-16T07:33:21.561Z,16384.00
2018-09-16T07:33:57.173Z,16032.00
2018-09-16T07:34:34.323Z,15712.00
2018-09-16T07:35:08.333Z,16064.00